Terminal Aerodrome Forecast
Issued by NWS

Home | Current Version | Previous Version | Text Only | Print | Product List | Glossary On
Versions: 1 2 3 4 5 6 7 8 9 10 11 12 13 14 15 16 17 18 19 20 21
000
FTUS43 KMQT 290520
TAFSAW
TAF
KSAW 290520Z 2906/3006 20013KT P6SM BKN150 WS015/22035KT
     FM291500 20018G28KT 5SM -FZRASN OVC035
     FM291600 20017G27KT 2SM -SN OVC010
     FM292000 23013G23KT 5SM -RASN OVC008
     FM292300 29017G27KT P6SM VCSH OVC015
     FM300100 30017G27KT P6SM OVC025
     FM300300 30013G23KT P6SM BKN035=

USA.gov is the U.S. government's official web portal to all federal, state and local government web resources and services.